sensor_id;sensor_type;location;lat;lon;timestamp;pressure;altitude;pressure_sealevel;temperature;humidity
56042;BME280;48756;41.374;2.066;2023-01-27T00:00:33;100756.34;;;6.22;68.26
56042;BME280;48756;41.374;2.066;2023-01-27T00:02:58;100747.66;;;6.12;67.53
56042;BME280;48756;41.374;2.066;2023-01-27T00:05:23;100746.59;;;5.91;69.05
56042;BME280;48756;41.374;2.066;2023-01-27T00:07:49;100745.84;;;6.05;69.29
56042;BME280;48756;41.374;2.066;2023-01-27T00:10:15;100747.50;;;5.96;68.86
56042;BME280;48756;41.374;2.066;2023-01-27T00:12:42;100748.84;;;5.65;70.54
56042;BME280;48756;41.374;2.066;2023-01-27T00:15:26;100747.78;;;5.44;70.48
56042;BME280;48756;41.374;2.066;2023-01-27T00:17:51;100757.06;;;5.29;70.05
56042;BME280;48756;41.374;2.066;2023-01-27T00:20:17;100758.69;;;5.20;70.94
56042;BME280;48756;41.374;2.066;2023-01-27T00:23:01;100745.06;;;5.35;71.57
56042;BME280;48756;41.374;2.066;2023-01-27T00:25:45;100741.84;;;5.54;70.38
56042;BME280;48756;41.374;2.066;2023-01-27T00:28:15;100734.97;;;5.55;69.93
56042;BME280;48756;41.374;2.066;2023-01-27T00:30:47;100737.31;;;5.35;70.53
56042;BME280;48756;41.374;2.066;2023-01-27T00:33:12;100729.72;;;5.47;70.01
56042;BME280;48756;41.374;2.066;2023-01-27T00:35:56;100735.31;;;5.11;71.56
56042;BME280;48756;41.374;2.066;2023-01-27T00:38:22;100730.84;;;4.98;72.46
56042;BME280;48756;41.374;2.066;2023-01-27T00:40:47;100719.91;;;5.19;72.68
56042;BME280;48756;41.374;2.066;2023-01-27T00:43:33;100725.91;;;5.16;71.39
56042;BME280;48756;41.374;2.066;2023-01-27T00:45:58;100719.19;;;5.31;71.04
56042;BME280;48756;41.374;2.066;2023-01-27T00:48:24;100715.31;;;5.68;69.04
56042;BME280;48756;41.374;2.066;2023-01-27T00:50:49;100707.72;;;5.88;68.13
56042;BME280;48756;41.374;2.066;2023-01-27T00:53:15;100711.44;;;5.29;68.47
56042;BME280;48756;41.374;2.066;2023-01-27T00:55:40;100713.69;;;5.03;70.58
56042;BME280;48756;41.374;2.066;2023-01-27T00:58:06;100713.44;;;4.85;72.19
56042;BME280;48756;41.374;2.066;2023-01-27T01:00:31;100712.22;;;5.22;71.87
56042;BME280;48756;41.374;2.066;2023-01-27T01:02:56;100702.25;;;5.56;69.25
56042;BME280;48756;41.374;2.066;2023-01-27T01:05:22;100705.44;;;5.35;70.05
56042;BME280;48756;41.374;2.066;2023-01-27T01:07:47;100705.59;;;5.45;69.38
56042;BME280;48756;41.374;2.066;2023-01-27T01:10:12;100711.50;;;5.37;70.25
56042;BME280;48756;41.374;2.066;2023-01-27T01:12:38;100701.88;;;5.22;70.46
56042;BME280;48756;41.374;2.066;2023-01-27T01:15:03;100700.09;;;5.18;71.08
56042;BME280;48756;41.374;2.066;2023-01-27T01:17:32;100699.19;;;5.16;70.33
56042;BME280;48756;41.374;2.066;2023-01-27T01:19:57;100700.78;;;5.02;71.12
56042;BME280;48756;41.374;2.066;2023-01-27T01:22:23;100702.38;;;4.93;70.83
56042;BME280;48756;41.374;2.066;2023-01-27T01:24:48;100706.78;;;5.01;71.11
56042;BME280;48756;41.374;2.066;2023-01-27T01:27:13;100698.28;;;5.11;71.20
56042;BME280;48756;41.374;2.066;2023-01-27T01:29:39;100692.25;;;5.10;71.15
56042;BME280;48756;41.374;2.066;2023-01-27T01:32:04;100689.63;;;5.06;70.34
56042;BME280;48756;41.374;2.066;2023-01-27T01:34:31;100685.25;;;4.99;71.28
56042;BME280;48756;41.374;2.066;2023-01-27T01:36:56;100678.28;;;4.95;70.67
56042;BME280;48756;41.374;2.066;2023-01-27T01:39:22;100691.06;;;4.82;70.42
56042;BME280;48756;41.374;2.066;2023-01-27T01:41:47;100685.88;;;4.82;70.57
56042;BME280;48756;41.374;2.066;2023-01-27T01:44:26;100690.22;;;4.86;70.42
56042;BME280;48756;41.374;2.066;2023-01-27T01:46:52;100696.06;;;4.73;71.82
56042;BME280;48756;41.374;2.066;2023-01-27T01:49:18;100691.69;;;4.68;71.26
56042;BME280;48756;41.374;2.066;2023-01-27T01:51:45;100694.16;;;4.57;71.16
56042;BME280;48756;41.374;2.066;2023-01-27T01:54:15;100691.78;;;4.74;70.60
56042;BME280;48756;41.374;2.066;2023-01-27T01:56:52;100695.56;;;4.37;72.21
56042;BME280;48756;41.374;2.066;2023-01-27T01:59:20;100698.34;;;4.52;70.56
56042;BME280;48756;41.374;2.066;2023-01-27T02:01:47;100700.63;;;4.30;71.08
56042;BME280;48756;41.374;2.066;2023-01-27T02:04:16;100692.31;;;4.51;71.30
56042;BME280;48756;41.374;2.066;2023-01-27T02:06:44;100694.75;;;4.41;69.87
56042;BME280;48756;41.374;2.066;2023-01-27T02:09:13;100693.00;;;4.38;70.36
56042;BME280;48756;41.374;2.066;2023-01-27T02:11:39;100693.78;;;4.33;70.44
56042;BME280;48756;41.374;2.066;2023-01-27T02:14:04;100690.59;;;4.50;69.46
56042;BME280;48756;41.374;2.066;2023-01-27T02:16:29;100689.72;;;4.50;70.00
56042;BME280;48756;41.374;2.066;2023-01-27T02:18:55;100700.69;;;4.34;69.78
56042;BME280;48756;41.374;2.066;2023-01-27T02:21:21;100685.28;;;4.40;70.14
56042;BME280;48756;41.374;2.066;2023-01-27T02:23:57;100685.38;;;4.47;70.88
56042;BME280;48756;41.374;2.066;2023-01-27T02:29:03;100690.53;;;4.46;70.63
56042;BME280;48756;41.374;2.066;2023-01-27T02:31:29;100696.72;;;4.55;69.87
56042;BME280;48756;41.374;2.066;2023-01-27T02:33:56;100695.84;;;4.55;70.00
56042;BME280;48756;41.374;2.066;2023-01-27T02:36:23;100688.13;;;4.56;70.26
56042;BME280;48756;41.374;2.066;2023-01-27T02:38:49;100686.16;;;4.40;71.06
56042;BME280;48756;41.374;2.066;2023-01-27T02:43:54;100676.09;;;4.57;70.42
56042;BME280;48756;41.374;2.066;2023-01-27T02:46:19;100682.59;;;4.32;70.13
56042;BME280;48756;41.374;2.066;2023-01-27T02:48:45;100686.16;;;4.40;70.65
56042;BME280;48756;41.374;2.066;2023-01-27T02:51:10;100676.69;;;4.41;70.82
56042;BME280;48756;41.374;2.066;2023-01-27T02:53:36;100680.13;;;4.40;70.25
56042;BME280;48756;41.374;2.066;2023-01-27T02:56:02;100677.59;;;4.44;71.22
56042;BME280;48756;41.374;2.066;2023-01-27T02:58:28;100682.81;;;4.49;70.17
56042;BME280;48756;41.374;2.066;2023-01-27T03:00:53;100675.78;;;4.37;70.78
56042;BME280;48756;41.374;2.066;2023-01-27T03:03:18;100673.28;;;4.43;70.10
56042;BME280;48756;41.374;2.066;2023-01-27T03:05:44;100672.47;;;4.46;70.72
56042;BME280;48756;41.374;2.066;2023-01-27T03:08:10;100666.47;;;4.47;70.25
56042;BME280;48756;41.374;2.066;2023-01-27T03:10:35;100673.38;;;4.51;69.93
56042;BME280;48756;41.374;2.066;2023-01-27T03:13:01;100671.75;;;4.54;70.07
56042;BME280;48756;41.374;2.066;2023-01-27T03:15:26;100674.25;;;4.51;70.99
56042;BME280;48756;41.374;2.066;2023-01-27T03:18:11;100671.75;;;4.56;70.77
56042;BME280;48756;41.374;2.066;2023-01-27T03:20:41;100677.97;;;4.70;68.95
56042;BME280;48756;41.374;2.066;2023-01-27T03:23:07;100671.72;;;4.53;69.92
56042;BME280;48756;41.374;2.066;2023-01-27T03:25:33;100674.47;;;4.67;70.08
56042;BME280;48756;41.374;2.066;2023-01-27T03:27:58;100681.16;;;4.52;70.38
56042;BME280;48756;41.374;2.066;2023-01-27T03:30:24;100671.94;;;4.71;69.01
56042;BME280;48756;41.374;2.066;2023-01-27T03:32:50;100662.91;;;5.04;69.01
56042;BME280;48756;41.374;2.066;2023-01-27T03:35:15;100672.22;;;4.91;68.23
56042;BME280;48756;41.374;2.066;2023-01-27T03:37:41;100666.34;;;5.01;68.82
56042;BME280;48756;41.374;2.066;2023-01-27T03:40:26;100671.47;;;5.00;67.80
56042;BME280;48756;41.374;2.066;2023-01-27T03:43:10;100678.13;;;4.81;68.41
56042;BME280;48756;41.374;2.066;2023-01-27T03:45:54;100681.31;;;4.63;68.14
56042;BME280;48756;41.374;2.066;2023-01-27T03:48:39;100668.66;;;4.80;68.79
56042;BME280;48756;41.374;2.066;2023-01-27T03:51:05;100673.72;;;4.74;68.23
56042;BME280;48756;41.374;2.066;2023-01-27T03:53:31;100669.38;;;4.71;68.39
56042;BME280;48756;41.374;2.066;2023-01-27T03:55:57;100670.19;;;4.67;68.48
56042;BME280;48756;41.374;2.066;2023-01-27T03:58:24;100663.13;;;4.54;68.78
56042;BME280;48756;41.374;2.066;2023-01-27T04:00:53;100664.88;;;4.55;68.09
56042;BME280;48756;41.374;2.066;2023-01-27T04:03:19;100659.59;;;4.47;68.72
56042;BME280;48756;41.374;2.066;2023-01-27T04:06:04;100656.94;;;4.43;68.97
56042;BME280;48756;41.374;2.066;2023-01-27T04:08:49;100668.16;;;4.45;68.96
56042;BME280;48756;41.374;2.066;2023-01-27T04:11:14;100668.38;;;4.60;68.34
56042;BME280;48756;41.374;2.066;2023-01-27T04:14:04;100661.44;;;4.56;68.81
56042;BME280;48756;41.374;2.066;2023-01-27T04:16:30;100659.78;;;4.59;68.35
56042;BME280;48756;41.374;2.066;2023-01-27T04:18:56;100664.09;;;4.62;68.06
56042;BME280;48756;41.374;2.066;2023-01-27T04:21:22;100660.09;;;4.85;66.87
56042;BME280;48756;41.374;2.066;2023-01-27T04:23:47;100665.28;;;4.85;65.97
56042;BME280;48756;41.374;2.066;2023-01-27T04:26:13;100667.94;;;4.95;65.35
56042;BME280;48756;41.374;2.066;2023-01-27T04:28:38;100675.53;;;4.81;65.57
56042;BME280;48756;41.374;2.066;2023-01-27T04:31:03;100667.78;;;4.79;65.76
56042;BME280;48756;41.374;2.066;2023-01-27T04:33:29;100658.47;;;4.93;65.10
56042;BME280;48756;41.374;2.066;2023-01-27T04:35:54;100653.25;;;4.87;65.78
56042;BME280;48756;41.374;2.066;2023-01-27T04:38:20;100657.38;;;4.75;65.56
56042;BME280;48756;41.374;2.066;2023-01-27T04:40:46;100654.09;;;4.86;65.91
56042;BME280;48756;41.374;2.066;2023-01-27T04:43:11;100655.22;;;5.08;65.25
56042;BME280;48756;41.374;2.066;2023-01-27T04:45:37;100649.09;;;4.99;64.53
56042;BME280;48756;41.374;2.066;2023-01-27T04:48:02;100655.75;;;4.80;65.54
56042;BME280;48756;41.374;2.066;2023-01-27T04:50:27;100658.47;;;4.93;64.89
56042;BME280;48756;41.374;2.066;2023-01-27T04:52:53;100668.91;;;5.00;64.52
56042;BME280;48756;41.374;2.066;2023-01-27T04:55:18;100655.78;;;4.84;64.83
56042;BME280;48756;41.374;2.066;2023-01-27T04:57:44;100665.47;;;5.01;64.26
56042;BME280;48756;41.374;2.066;2023-01-27T05:00:09;100661.19;;;5.04;63.47
56042;BME280;48756;41.374;2.066;2023-01-27T05:02:35;100663.66;;;4.97;64.21
56042;BME280;48756;41.374;2.066;2023-01-27T05:05:01;100667.97;;;4.96;64.19
56042;BME280;48756;41.374;2.066;2023-01-27T05:07:29;100674.97;;;5.05;63.11
56042;BME280;48756;41.374;2.066;2023-01-27T05:09:54;100662.13;;;5.09;63.33
56042;BME280;48756;41.374;2.066;2023-01-27T05:12:20;100673.22;;;5.01;64.10
56042;BME280;48756;41.374;2.066;2023-01-27T05:14:45;100666.38;;;5.04;63.59
56042;BME280;48756;41.374;2.066;2023-01-27T05:17:11;100663.56;;;4.86;64.68
56042;BME280;48756;41.374;2.066;2023-01-27T05:19:36;100669.53;;;4.83;63.88
56042;BME280;48756;41.374;2.066;2023-01-27T05:22:01;100668.78;;;4.92;63.40
56042;BME280;48756;41.374;2.066;2023-01-27T05:24:27;100679.06;;;4.87;64.69
56042;BME280;48756;41.374;2.066;2023-01-27T05:26:52;100680.66;;;4.78;64.93
56042;BME280;48756;41.374;2.066;2023-01-27T05:29:18;100663.44;;;4.75;65.04
56042;BME280;48756;41.374;2.066;2023-01-27T05:31:43;100671.09;;;4.71;65.10
56042;BME280;48756;41.374;2.066;2023-01-27T05:34:09;100669.16;;;4.53;66.07
56042;BME280;48756;41.374;2.066;2023-01-27T05:36:34;100664.00;;;4.53;65.34
56042;BME280;48756;41.374;2.066;2023-01-27T05:38:59;100665.78;;;4.58;65.72
56042;BME280;48756;41.374;2.066;2023-01-27T05:41:27;100669.22;;;4.57;65.60
56042;BME280;48756;41.374;2.066;2023-01-27T05:43:54;100659.06;;;4.73;63.98
56042;BME280;48756;41.374;2.066;2023-01-27T05:46:23;100678.38;;;4.39;65.85
56042;BME280;48756;41.374;2.066;2023-01-27T05:48:51;100680.88;;;4.33;65.93
56042;BME280;48756;41.374;2.066;2023-01-27T05:51:17;100674.03;;;4.35;65.80
56042;BME280;48756;41.374;2.066;2023-01-27T05:53:43;100671.41;;;4.32;67.14
56042;BME280;48756;41.374;2.066;2023-01-27T05:56:09;100668.16;;;4.45;65.63
56042;BME280;48756;41.374;2.066;2023-01-27T05:58:35;100671.63;;;4.47;65.67
56042;BME280;48756;41.374;2.066;2023-01-27T06:03:32;100668.16;;;4.46;65.26
56042;BME280;48756;41.374;2.066;2023-01-27T06:05:57;100674.97;;;4.40;65.63
56042;BME280;48756;41.374;2.066;2023-01-27T06:08:24;100675.75;;;4.34;66.46
56042;BME280;48756;41.374;2.066;2023-01-27T06:10:50;100671.41;;;4.30;66.11
56042;BME280;48756;41.374;2.066;2023-01-27T06:13:15;100683.22;;;4.17;66.05
56042;BME280;48756;41.374;2.066;2023-01-27T06:15:44;100677.19;;;4.15;66.36
56042;BME280;48756;41.374;2.066;2023-01-27T06:18:10;100678.09;;;4.19;66.89
56042;BME280;48756;41.374;2.066;2023-01-27T06:20:36;100683.91;;;4.07;67.12
56042;BME280;48756;41.374;2.066;2023-01-27T06:23:02;100681.63;;;4.27;66.10
56042;BME280;48756;41.374;2.066;2023-01-27T06:25:27;100678.22;;;4.28;65.49
56042;BME280;48756;41.374;2.066;2023-01-27T06:27:56;100679.03;;;4.25;66.38
56042;BME280;48756;41.374;2.066;2023-01-27T06:30:22;100678.16;;;4.23;66.67
56042;BME280;48756;41.374;2.066;2023-01-27T06:32:47;100685.84;;;4.20;65.73
56042;BME280;48756;41.374;2.066;2023-01-27T06:35:13;100682.34;;;4.17;66.25
56042;BME280;48756;41.374;2.066;2023-01-27T06:37:38;100682.69;;;4.40;66.42
56042;BME280;48756;41.374;2.066;2023-01-27T06:40:03;100674.88;;;4.34;64.77
56042;BME280;48756;41.374;2.066;2023-01-27T06:42:29;100681.72;;;4.30;66.36
56042;BME280;48756;41.374;2.066;2023-01-27T06:44:55;100680.09;;;4.37;65.25
56042;BME280;48756;41.374;2.066;2023-01-27T06:47:20;100685.28;;;4.40;65.88
56042;BME280;48756;41.374;2.066;2023-01-27T06:49:46;100683.63;;;4.45;65.67
56042;BME280;48756;41.374;2.066;2023-01-27T06:52:11;100676.91;;;4.54;64.63
56042;BME280;48756;41.374;2.066;2023-01-27T06:54:36;100687.09;;;4.47;65.18
56042;BME280;48756;41.374;2.066;2023-01-27T06:57:02;100686.53;;;4.68;64.74
56042;BME280;48756;41.374;2.066;2023-01-27T06:59:27;100682.22;;;4.67;64.79
56042;BME280;48756;41.374;2.066;2023-01-27T07:01:55;100687.28;;;4.59;64.52
56042;BME280;48756;41.374;2.066;2023-01-27T07:04:20;100682.94;;;4.55;64.26
56042;BME280;48756;41.374;2.066;2023-01-27T07:06:46;100688.25;;;4.67;64.80
56042;BME280;48756;41.374;2.066;2023-01-27T07:09:11;100682.22;;;4.67;64.65
56042;BME280;48756;41.374;2.066;2023-01-27T07:11:39;100683.94;;;4.66;63.72
56042;BME280;48756;41.374;2.066;2023-01-27T07:14:05;100688.94;;;4.54;64.90
56042;BME280;48756;41.374;2.066;2023-01-27T07:16:30;100693.28;;;4.56;63.83
56042;BME280;48756;41.374;2.066;2023-01-27T07:18:55;100685.56;;;4.59;64.59
56042;BME280;48756;41.374;2.066;2023-01-27T07:21:21;100687.28;;;4.59;63.48
56042;BME280;48756;41.374;2.066;2023-01-27T07:23:46;100697.28;;;4.36;64.99
56042;BME280;48756;41.374;2.066;2023-01-27T07:26:14;100692.13;;;4.36;65.43
56042;BME280;48756;41.374;2.066;2023-01-27T07:28:39;100688.78;;;4.43;64.69
56042;BME280;48756;41.374;2.066;2023-01-27T07:31:05;100687.09;;;4.47;64.84
56042;BME280;48756;41.374;2.066;2023-01-27T07:33:30;100688.78;;;4.45;63.54
56042;BME280;48756;41.374;2.066;2023-01-27T07:35:56;100687.91;;;4.43;64.22
56042;BME280;48756;41.374;2.066;2023-01-27T07:38:21;100686.13;;;4.39;64.34
56042;BME280;48756;41.374;2.066;2023-01-27T07:40:46;100688.78;;;4.45;63.60
56042;BME280;48756;41.374;2.066;2023-01-27T07:43:12;100690.78;;;4.64;63.58
56042;BME280;48756;41.374;2.066;2023-01-27T07:45:37;100691.78;;;4.74;63.33
56042;BME280;48756;41.374;2.066;2023-01-27T07:48:05;100691.25;;;4.36;64.34
56042;BME280;48756;41.374;2.066;2023-01-27T07:50:31;100693.31;;;4.58;63.33
56042;BME280;48756;41.374;2.066;2023-01-27T07:53:00;100688.81;;;4.46;63.76
56042;BME280;48756;41.374;2.066;2023-01-27T07:55:26;100697.28;;;4.38;64.06
56042;BME280;48756;41.374;2.066;2023-01-27T07:57:52;100701.78;;;4.52;63.62
56042;BME280;48756;41.374;2.066;2023-01-27T08:00:18;100699.16;;;4.49;63.74
56042;BME280;48756;41.374;2.066;2023-01-27T08:02:49;100698.31;;;4.50;62.96
56042;BME280;48756;41.374;2.066;2023-01-27T08:05:14;100698.50;;;4.63;64.18
56042;BME280;48756;41.374;2.066;2023-01-27T08:07:39;100706.06;;;4.50;63.73
56042;BME280;48756;41.374;2.066;2023-01-27T08:10:05;100707.00;;;4.54;62.88
56042;BME280;48756;41.374;2.066;2023-01-27T08:12:30;100708.59;;;4.46;64.23
56042;BME280;48756;41.374;2.066;2023-01-27T08:14:56;100714.50;;;4.39;63.11
56042;BME280;48756;41.374;2.066;2023-01-27T08:17:21;100712.09;;;4.51;63.31
56042;BME280;48756;41.374;2.066;2023-01-27T08:19:46;100714.69;;;4.51;64.19
56042;BME280;48756;41.374;2.066;2023-01-27T08:22:14;100719.16;;;4.63;62.58
56042;BME280;48756;41.374;2.066;2023-01-27T08:24:43;100721.84;;;4.70;63.19
56042;BME280;48756;41.374;2.066;2023-01-27T08:27:09;100720.25;;;4.78;62.10
56042;BME280;48756;41.374;2.066;2023-01-27T08:29:34;100721.50;;;5.09;61.88
56042;BME280;48756;41.374;2.066;2023-01-27T08:31:59;100713.78;;;5.09;60.66
56042;BME280;48756;41.374;2.066;2023-01-27T08:34:25;100723.25;;;5.12;60.86
56042;BME280;48756;41.374;2.066;2023-01-27T08:36:50;100720.91;;;5.29;60.31
56042;BME280;48756;41.374;2.066;2023-01-27T08:39:16;100721.19;;;5.54;59.74
56042;BME280;48756;41.374;2.066;2023-01-27T08:41:41;100731.94;;;5.17;60.29
56042;BME280;48756;41.374;2.066;2023-01-27T08:44:06;100719.13;;;5.25;59.91
56042;BME280;48756;41.374;2.066;2023-01-27T08:46:32;100717.44;;;5.27;59.03
56042;BME280;48756;41.374;2.066;2023-01-27T08:48:57;100727.06;;;5.43;59.47
56042;BME280;48756;41.374;2.066;2023-01-27T08:51:22;100729.53;;;5.31;58.89
56042;BME280;48756;41.374;2.066;2023-01-27T08:53:48;100732.09;;;5.31;59.10
56042;BME280;48756;41.374;2.066;2023-01-27T08:56:13;100738.22;;;5.39;58.89
56042;BME280;48756;41.374;2.066;2023-01-27T08:58:39;100733.94;;;5.41;59.25
56042;BME280;48756;41.374;2.066;2023-01-27T09:01:05;100732.56;;;5.72;57.84
56042;BME280;48756;41.374;2.066;2023-01-27T09:03:31;100736.16;;;5.88;56.93
56042;BME280;48756;41.374;2.066;2023-01-27T09:05:56;100744.84;;;5.90;56.63
56042;BME280;48756;41.374;2.066;2023-01-27T09:08:22;100738.84;;;5.94;55.79
56042;BME280;48756;41.374;2.066;2023-01-27T09:10:47;100750.75;;;5.82;56.81
56042;BME280;48756;41.374;2.066;2023-01-27T09:13:13;100760.72;;;5.44;57.46
56042;BME280;48756;41.374;2.066;2023-01-27T09:15:40;100747.13;;;5.64;56.37
56042;BME280;48756;41.374;2.066;2023-01-27T09:18:07;100751.25;;;5.46;57.50
56042;BME280;48756;41.374;2.066;2023-01-27T09:20:33;100753.50;;;5.93;56.07
56042;BME280;48756;41.374;2.066;2023-01-27T09:23:01;100744.69;;;5.77;56.29
56042;BME280;48756;41.374;2.066;2023-01-27T09:25:26;100750.13;;;6.03;55.12
56042;BME280;48756;41.374;2.066;2023-01-27T09:27:55;100762.88;;;5.87;56.44
56042;BME280;48756;41.374;2.066;2023-01-27T09:30:21;100756.13;;;5.96;55.31
56042;BME280;48756;41.374;2.066;2023-01-27T09:32:50;100752.63;;;5.91;55.46
56042;BME280;48756;41.374;2.066;2023-01-27T09:35:15;100754.25;;;5.86;55.52
56042;BME280;48756;41.374;2.066;2023-01-27T09:37:53;100755.94;;;5.82;55.99
56042;BME280;48756;41.374;2.066;2023-01-27T09:40:30;100756.97;;;5.97;55.49
56042;BME280;48756;41.374;2.066;2023-01-27T09:45:35;100750.47;;;6.41;54.30
56042;BME280;48756;41.374;2.066;2023-01-27T09:48:07;100748.91;;;6.63;54.17
56042;BME280;48756;41.374;2.066;2023-01-27T09:50:44;100758.59;;;6.99;53.12
56042;BME280;48756;41.374;2.066;2023-01-27T10:00:57;100748.81;;;6.50;54.16
56042;BME280;48756;41.374;2.066;2023-01-27T10:11:31;100750.94;;;7.15;53.11
56042;BME280;48756;41.374;2.066;2023-01-27T10:14:04;100746.63;;;7.23;52.61
56042;BME280;48756;41.374;2.066;2023-01-27T10:21:45;100748.44;;;7.45;51.19
56042;BME280;48756;41.374;2.066;2023-01-27T10:26:39;100757.25;;;7.93;50.70
56042;BME280;48756;41.374;2.066;2023-01-27T10:29:09;100743.38;;;7.82;50.47
56042;BME280;48756;41.374;2.066;2023-01-27T10:31:42;100742.47;;;7.66;51.30
56042;BME280;48756;41.374;2.066;2023-01-27T10:34:17;100744.25;;;7.82;51.34
56042;BME280;48756;41.374;2.066;2023-01-27T10:36:53;100751.22;;;8.20;50.48
56042;BME280;48756;41.374;2.066;2023-01-27T10:39:24;100746.84;;;7.81;51.58
56042;BME280;48756;41.374;2.066;2023-01-27T10:49:48;100742.59;;;8.48;50.09
56042;BME280;48756;41.374;2.066;2023-01-27T10:54:52;100737.38;;;8.62;49.69
56042;BME280;48756;41.374;2.066;2023-01-27T10:57:21;100728.63;;;9.06;49.02
56042;BME280;48756;41.374;2.066;2023-01-27T11:05:36;100729.47;;;9.05;48.63
56042;BME280;48756;41.374;2.066;2023-01-27T11:08:09;100720.75;;;9.23;48.53
56042;BME280;48756;41.374;2.066;2023-01-27T11:10:40;100714.53;;;9.54;47.43
56042;BME280;48756;41.374;2.066;2023-01-27T11:13:30;100722.41;;;9.39;47.99
56042;BME280;48756;41.374;2.066;2023-01-27T11:15:55;100717.09;;;9.60;47.45
56042;BME280;48756;41.374;2.066;2023-01-27T11:18:21;100718.03;;;9.45;47.80
56042;BME280;48756;41.374;2.066;2023-01-27T11:20:55;100715.44;;;9.44;48.01
56042;BME280;48756;41.374;2.066;2023-01-27T11:23:22;100715.47;;;9.39;48.18
56042;BME280;48756;41.374;2.066;2023-01-27T11:34:06;100696.13;;;10.81;46.15
56042;BME280;48756;41.374;2.066;2023-01-27T11:36:35;100695.88;;;10.15;47.46
56042;BME280;48756;41.374;2.066;2023-01-27T11:39:12;100692.25;;;10.37;46.82
56042;BME280;48756;41.374;2.066;2023-01-27T11:41:43;100683.13;;;10.81;46.52
56042;BME280;48756;41.374;2.066;2023-01-27T11:44:20;100679.59;;;10.87;47.18
56042;BME280;48756;41.374;2.066;2023-01-27T11:46:46;100687.59;;;10.68;47.61
56042;BME280;48756;41.374;2.066;2023-01-27T11:49:16;100677.06;;;10.79;49.68
56042;BME280;48756;41.374;2.066;2023-01-27T11:51:43;100670.28;;;11.35;48.64
56042;BME280;48756;41.374;2.066;2023-01-27T11:54:22;100676.75;;;11.70;47.97
56042;BME280;48756;41.374;2.066;2023-01-27T11:56:49;100677.34;;;11.88;48.15
56042;BME280;48756;41.374;2.066;2023-01-27T11:59:16;100670.69;;;11.68;48.32
56042;BME280;48756;41.374;2.066;2023-01-27T12:01:45;100674.63;;;11.94;48.69
56042;BME280;48756;41.374;2.066;2023-01-27T12:04:21;100676.34;;;11.97;49.04
56042;BME280;48756;41.374;2.066;2023-01-27T12:06:48;100672.63;;;12.12;48.55
56042;BME280;48756;41.374;2.066;2023-01-27T12:09:37;100665.78;;;12.05;49.03
56042;BME280;48756;41.374;2.066;2023-01-27T12:12:18;100660.47;;;12.09;49.47
56042;BME280;48756;41.374;2.066;2023-01-27T12:14:48;100651.06;;;12.50;48.24
56042;BME280;48756;41.374;2.066;2023-01-27T12:17:15;100654.50;;;12.52;50.10
56042;BME280;48756;41.374;2.066;2023-01-27T12:19:43;100652.06;;;11.92;49.29
56042;BME280;48756;41.374;2.066;2023-01-27T12:22:24;100662.59;;;11.86;50.40
56042;BME280;48756;41.374;2.066;2023-01-27T12:24:51;100652.44;;;12.20;48.98
56042;BME280;48756;41.374;2.066;2023-01-27T12:27:27;100654.09;;;12.27;48.98
56042;BME280;48756;41.374;2.066;2023-01-27T12:29:58;100652.31;;;12.75;49.11
56042;BME280;48756;41.374;2.066;2023-01-27T12:32:39;100651.22;;;12.85;48.08
56042;BME280;48756;41.374;2.066;2023-01-27T12:35:05;100651.56;;;12.69;48.73
56042;BME280;48756;41.374;2.066;2023-01-27T12:37:35;100646.63;;;12.06;49.67
56042;BME280;48756;41.374;2.066;2023-01-27T12:40:02;100648.59;;;11.91;49.19
56042;BME280;48756;41.374;2.066;2023-01-27T12:42:48;100652.06;;;11.92;49.58
56042;BME280;48756;41.374;2.066;2023-01-27T12:45:28;100642.63;;;12.34;48.64
56042;BME280;48756;41.374;2.066;2023-01-27T12:47:55;100642.47;;;11.92;49.60
56042;BME280;48756;41.374;2.066;2023-01-27T12:55:35;100650.66;;;12.23;48.28
56042;BME280;48756;41.374;2.066;2023-01-27T12:58:03;100640.94;;;12.32;47.67
56042;BME280;48756;41.374;2.066;2023-01-27T13:00:28;100645.91;;;12.45;47.61
56042;BME280;48756;41.374;2.066;2023-01-27T13:03:13;100631.88;;;12.51;47.17
56042;BME280;48756;41.374;2.066;2023-01-27T13:05:38;100653.31;;;11.66;48.63
56042;BME280;48756;41.374;2.066;2023-01-27T13:08:16;100644.81;;;11.52;50.10
56042;BME280;48756;41.374;2.066;2023-01-27T13:10:55;100643.22;;;11.99;49.04
56042;BME280;48756;41.374;2.066;2023-01-27T13:13:25;100642.44;;;12.45;47.93
56042;BME280;48756;41.374;2.066;2023-01-27T13:15:55;100634.78;;;12.80;49.68
56042;BME280;48756;41.374;2.066;2023-01-27T13:18:21;100629.09;;;13.02;49.95
56042;BME280;48756;41.374;2.066;2023-01-27T13:20:50;100626.19;;;13.15;50.46
56042;BME280;48756;41.374;2.066;2023-01-27T13:23:21;100619.63;;;12.96;49.85
56042;BME280;48756;41.374;2.066;2023-01-27T13:28:49;100618.97;;;12.85;50.23
56042;BME280;48756;41.374;2.066;2023-01-27T13:32:17;100624.50;;;13.13;51.68
56042;BME280;48756;41.374;2.066;2023-01-27T13:42:23;100625.47;;;12.66;53.16
56042;BME280;48756;41.374;2.066;2023-01-27T13:44:54;100627.69;;;13.27;51.04
56042;BME280;48756;41.374;2.066;2023-01-27T13:47:24;100621.56;;;12.86;52.48
56042;BME280;48756;41.374;2.066;2023-01-27T13:50:01;100630.59;;;13.13;51.91
56042;BME280;48756;41.374;2.066;2023-01-27T13:52:29;100629.03;;;13.05;52.13
56042;BME280;48756;41.374;2.066;2023-01-27T13:54:54;100627.44;;;13.39;51.00
56042;BME280;48756;41.374;2.066;2023-01-27T14:07:46;100649.72;;;13.18;54.85
56042;BME280;48756;41.374;2.066;2023-01-27T14:15:23;100652.44;;;13.53;56.77
56042;BME280;48756;41.374;2.066;2023-01-27T14:27:36;100648.25;;;12.59;60.04
56042;BME280;48756;41.374;2.066;2023-01-27T14:30:15;100654.53;;;12.50;60.93
56042;BME280;48756;41.374;2.066;2023-01-27T14:33:08;100644.06;;;12.95;59.86
56042;BME280;48756;41.374;2.066;2023-01-27T14:48:40;100662.63;;;12.37;62.83
56042;BME280;48756;41.374;2.066;2023-01-27T14:51:10;100663.63;;;12.30;63.11
56042;BME280;48756;41.374;2.066;2023-01-27T14:53:48;100661.94;;;12.25;62.65
56042;BME280;48756;41.374;2.066;2023-01-27T14:56:32;100667.06;;;12.32;61.85